Time;durP1;ratioP1;P1;durP2;ratioP2;P2;SDS_P1;SDS_P2;PMS_P1;PMS_P2;Temp;Humidity;BMP_temperature;BMP_pressure;BME280_temperature;BME280_humidity;BME280_pressure;Samples;Min_cycle;Max_cycle;Signal;HPM_P1;HPM_P2
2022/07/21 00:00:19;;;;;;;;;;;;;;;-140.72;100.00;52163.59;5053013;28;19957;-66
2022/07/21 00:02:44;;;;;;;;;;;;;;;-140.72;100.00;52135.19;5055132;28;19944;-66
2022/07/21 00:05:09;;;;;;;;;;;;;;;-140.72;100.00;52145.34;5053151;28;19917;-65
2022/07/21 00:07:35;;;;;;;;;;;;;;;-140.72;100.00;52153.47;5056301;28;19967;-65
2022/07/21 00:10:00;;;;;;;;;;;;;;;-140.72;100.00;52147.38;5039523;28;19925;-65
2022/07/21 00:12:25;;;;;;;;;;;;;;;-140.72;100.00;52159.56;5056473;28;19924;-65
2022/07/21 00:14:50;;;;;;;;;;;;;;;-140.72;100.00;52131.16;5055217;28;19996;-64
2022/07/21 00:17:16;;;;;;;;;;;;;;;-140.72;100.00;52163.59;5057143;28;19917;-65
2022/07/21 00:19:41;;;;;;;;;;;;;;;-140.72;100.00;52141.28;5054408;28;19935;-66
2022/07/21 00:22:06;;;;;;;;;;;;;;;-140.72;100.00;52179.84;5054925;28;19917;-66
2022/07/21 00:24:31;;;;;;;;;;;;;;;-140.72;100.00;52157.53;5042247;28;19917;-65
2022/07/21 00:26:56;;;;;;;;;;;;;;;-140.72;100.00;52131.16;5044699;28;19940;-66
2022/07/21 00:29:22;;;;;;;;;;;;;;;-140.72;100.00;52151.44;5042691;28;19920;-65
2022/07/21 00:31:47;;;;;;;;;;;;;;;-140.72;100.00;52135.19;5045347;28;19962;-64
2022/07/21 00:34:12;;;;;;;;;;;;;;;-140.72;100.00;52147.38;5045714;28;20014;-65
2022/07/21 00:36:37;;;;;;;;;;;;;;;-140.72;100.00;52141.28;5058191;28;19929;-65
2022/07/21 00:39:03;;;;;;;;;;;;;;;-140.72;100.00;52133.16;5059703;28;20320;-65
2022/07/21 00:41:28;;;;;;;;;;;;;;;-140.72;100.00;52161.56;5047615;28;20015;-64
2022/07/21 00:43:53;;;;;;;;;;;;;;;-140.72;100.00;52171.72;5048540;28;19940;-65
2022/07/21 00:46:21;;;;;;;;;;;;;;;-140.72;100.00;52125.06;5051192;28;20420;-64
2022/07/21 00:48:47;;;;;;;;;;;;;;;-140.72;100.00;52121.00;5046082;28;20301;-65
2022/07/21 00:51:12;;;;;;;;;;;;;;;-140.72;100.00;52151.44;5044674;28;19917;-65
2022/07/21 00:53:37;;;;;;;;;;;;;;;-140.72;100.00;52133.16;5040604;28;19999;-65
2022/07/21 00:56:02;;;;;;;;;;;;;;;-140.72;100.00;52153.47;5057948;28;20405;-65
2022/07/21 00:58:28;;;;;;;;;;;;;;;-140.72;100.00;52192.00;5059903;28;19920;-63
2022/07/21 01:00:53;;;;;;;;;;;;;;;-140.72;100.00;52135.19;5043389;28;20373;-65
2022/07/21 01:03:19;;;;;;;;;;;;;;;-140.72;100.00;52131.16;5039924;28;20021;-65
2022/07/21 01:05:44;;;;;;;;;;;;;;;-140.72;100.00;52167.66;5052695;28;20301;-65
2022/07/21 01:08:10;;;;;;;;;;;;;;;-140.72;100.00;52185.94;5041680;28;19917;-65
2022/07/21 01:10:35;;;;;;;;;;;;;;;-140.72;100.00;52189.97;5046838;28;19916;-65
2022/07/21 01:13:01;;;;;;;;;;;;;;;-140.72;100.00;52163.59;5059612;28;19921;-65
2022/07/21 01:15:26;;;;;;;;;;;;;;;-140.72;100.00;52139.25;5052714;28;19928;-65
2022/07/21 01:17:52;;;;;;;;;;;;;;;-140.72;100.00;52175.78;5040447;28;20015;-66
2022/07/21 01:20:19;;;;;;;;;;;;;;;-140.72;100.00;52151.44;5047092;28;19974;-65
2022/07/21 01:22:45;;;;;;;;;;;;;;;-140.72;100.00;52175.78;5058506;28;19928;-64
2022/07/21 01:25:11;;;;;;;;;;;;;;;-140.72;100.00;52149.41;5051629;28;19917;-65
2022/07/21 01:27:37;;;;;;;;;;;;;;;-140.72;100.00;52137.22;5049513;28;20306;-64
2022/07/21 01:30:03;;;;;;;;;;;;;;;-140.72;100.00;52179.84;5054598;28;20346;-64
2022/07/21 01:32:29;;;;;;;;;;;;;;;-140.72;100.00;52157.53;5045141;28;19997;-64
2022/07/21 01:34:54;;;;;;;;;;;;;;;-140.72;100.00;52185.94;5042864;28;20309;-64
2022/07/21 01:37:20;;;;;;;;;;;;;;;-140.72;100.00;52139.25;5039588;28;19917;-65
2022/07/21 01:42:30;;;;;;;;;;;;;;;-140.72;100.00;52151.44;5059304;28;20010;-65
2022/07/21 01:44:57;;;;;;;;;;;;;;;-140.72;100.00;52192.00;5053248;28;19916;-66
2022/07/21 01:47:22;;;;;;;;;;;;;;;-140.72;100.00;52173.75;5044854;28;19923;-66
2022/07/21 01:49:48;;;;;;;;;;;;;;;-140.72;100.00;52183.91;5057336;28;20011;-65
2022/07/21 01:52:13;;;;;;;;;;;;;;;-140.72;100.00;52196.06;5043440;28;19925;-65
2022/07/21 01:54:38;;;;;;;;;;;;;;;-140.72;100.00;52151.44;5057023;28;19921;-66
2022/07/21 01:57:04;;;;;;;;;;;;;;;-140.72;100.00;52157.53;5052061;28;19943;-65
2022/07/21 01:59:29;;;;;;;;;;;;;;;-140.72;100.00;52179.84;5047945;28;19917;-64
2022/07/21 02:01:54;;;;;;;;;;;;;;;-140.72;100.00;52185.94;5042750;28;19925;-65
2022/07/21 02:04:19;;;;;;;;;;;;;;;-140.72;100.00;52133.16;5056253;28;19924;-64
2022/07/21 02:06:45;;;;;;;;;;;;;;;-140.72;100.00;52173.75;5044455;28;19921;-65
2022/07/21 02:09:10;;;;;;;;;;;;;;;-140.72;100.00;52147.38;5059386;28;19917;-64
2022/07/21 02:11:35;;;;;;;;;;;;;;;-140.72;100.00;52127.09;5056675;28;19971;-65
2022/07/21 02:14:01;;;;;;;;;;;;;;;-140.72;100.00;52159.56;5054495;28;19951;-65
2022/07/21 02:16:26;;;;;;;;;;;;;;;-140.72;100.00;52151.44;5043304;28;19964;-66
2022/07/21 02:18:52;;;;;;;;;;;;;;;-140.72;100.00;52204.19;5046425;28;19927;-65
2022/07/21 02:21:17;;;;;;;;;;;;;;;-140.72;100.00;52165.63;5055677;28;19917;-65
2022/07/21 02:23:42;;;;;;;;;;;;;;;-140.72;100.00;52200.13;5048668;28;19924;-66
2022/07/21 02:26:07;;;;;;;;;;;;;;;-140.72;100.00;52196.06;5053128;28;19921;-65
2022/07/21 02:28:33;;;;;;;;;;;;;;;-140.72;100.00;52165.63;5050206;28;19917;-64
2022/07/21 02:30:58;;;;;;;;;;;;;;;-140.72;100.00;52202.16;5040236;28;19925;-65
2022/07/21 02:33:23;;;;;;;;;;;;;;;-140.72;100.00;52147.38;5047859;28;19929;-67
2022/07/21 02:35:48;;;;;;;;;;;;;;;-140.72;100.00;52187.97;5055879;28;19929;-66
2022/07/21 02:38:14;;;;;;;;;;;;;;;-140.72;100.00;52187.97;5052612;28;19921;-65
2022/07/21 02:40:39;;;;;;;;;;;;;;;-140.72;100.00;52212.31;5040155;28;19963;-64
2022/07/21 02:43:05;;;;;;;;;;;;;;;-140.72;100.00;52200.13;5038211;28;19917;-65
2022/07/21 02:45:30;;;;;;;;;;;;;;;-140.72;100.00;52192.00;5037260;28;19963;-66
2022/07/21 02:47:57;;;;;;;;;;;;;;;-140.72;100.00;52224.47;5049852;28;19917;-66
2022/07/21 02:50:24;;;;;;;;;;;;;;;-140.72;100.00;52165.63;5052809;28;20380;-64
2022/07/21 02:52:49;;;;;;;;;;;;;;;-140.72;100.00;52187.97;5048793;28;19974;-64
2022/07/21 02:55:15;;;;;;;;;;;;;;;-140.72;100.00;52204.19;5053847;28;19917;-66
2022/07/21 02:57:40;;;;;;;;;;;;;;;-140.72;100.00;52206.22;5040658;28;19917;-66
2022/07/21 03:00:07;;;;;;;;;;;;;;;-140.72;100.00;52167.66;5054306;28;20369;-65
2022/07/21 03:02:32;;;;;;;;;;;;;;;-140.72;100.00;52216.34;5047407;28;19924;-64
2022/07/21 03:04:57;;;;;;;;;;;;;;;-140.72;100.00;52179.84;5043926;28;19917;-65
2022/07/21 03:07:22;;;;;;;;;;;;;;;-140.72;100.00;52187.97;5052073;28;20059;-64
2022/07/21 03:09:48;;;;;;;;;;;;;;;-140.72;100.00;52145.34;5045284;28;19917;-65
2022/07/21 03:12:13;;;;;;;;;;;;;;;-140.72;100.00;52175.78;5055737;28;19920;-64
2022/07/21 03:14:38;;;;;;;;;;;;;;;-140.72;100.00;52175.78;5055957;28;19917;-65
2022/07/21 03:17:03;;;;;;;;;;;;;;;-140.72;100.00;52208.25;5052223;28;19921;-64
2022/07/21 03:19:29;;;;;;;;;;;;;;;-140.72;100.00;52208.25;5050100;28;19917;-65
2022/07/21 03:21:54;;;;;;;;;;;;;;;-140.72;100.00;52179.84;5039470;28;19924;-66
2022/07/21 03:24:19;;;;;;;;;;;;;;;-140.72;100.00;52216.34;5055437;28;19952;-65
2022/07/21 03:26:44;;;;;;;;;;;;;;;-140.72;100.00;52202.16;5044337;28;19989;-65
2022/07/21 03:29:10;;;;;;;;;;;;;;;-140.72;100.00;52208.25;5056506;28;19917;-65
2022/07/21 03:31:35;;;;;;;;;;;;;;;-140.72;100.00;52210.28;5044142;28;20271;-65
2022/07/21 03:34:00;;;;;;;;;;;;;;;-140.72;100.00;52200.13;5055643;28;19921;-65
2022/07/21 03:36:25;;;;;;;;;;;;;;;-140.72;100.00;52183.91;5054911;28;19917;-65
2022/07/21 03:38:51;;;;;;;;;;;;;;;-140.72;100.00;52220.41;5054083;28;19917;-64
2022/07/21 03:41:16;;;;;;;;;;;;;;;-140.72;100.00;52206.22;5053896;28;20017;-65
2022/07/21 03:43:41;;;;;;;;;;;;;;;-140.72;100.00;52220.41;5037985;28;20003;-64
2022/07/21 03:46:06;;;;;;;;;;;;;;;-140.72;100.00;52224.47;5036996;28;20415;-64
2022/07/21 03:48:32;;;;;;;;;;;;;;;-140.72;100.00;52165.63;5053917;28;19920;-65
2022/07/21 03:50:57;;;;;;;;;;;;;;;-140.72;100.00;52222.44;5056373;28;19921;-65
2022/07/21 03:53:22;;;;;;;;;;;;;;;-140.72;100.00;52240.72;5050060;28;19939;-65
2022/07/21 03:55:47;;;;;;;;;;;;;;;-140.72;100.00;52202.16;5060592;28;19945;-66
2022/07/21 03:58:14;;;;;;;;;;;;;;;-140.72;100.00;52202.16;5054291;28;19941;-65
2022/07/21 04:00:40;;;;;;;;;;;;;;;-140.72;100.00;52189.97;5054736;28;19916;-65
2022/07/21 04:03:06;;;;;;;;;;;;;;;-140.72;100.00;52189.97;5042428;28;19917;-64
2022/07/21 04:05:31;;;;;;;;;;;;;;;-140.72;100.00;52202.16;5052817;28;20008;-64
2022/07/21 04:07:57;;;;;;;;;;;;;;;-140.72;100.00;52204.19;5048406;28;19925;-65
2022/07/21 04:10:32;;;;;;;;;;;;;;;-140.72;100.00;52200.13;5047631;28;19992;-64
2022/07/21 04:12:59;;;;;;;;;;;;;;;-140.72;100.00;52189.97;5053021;28;19923;-64
2022/07/21 04:15:24;;;;;;;;;;;;;;;-140.72;100.00;52185.94;5040146;28;19921;-66
2022/07/21 04:17:50;;;;;;;;;;;;;;;-140.72;100.00;52230.56;5055435;28;20012;-65
2022/07/21 04:20:15;;;;;;;;;;;;;;;-140.72;100.00;52218.38;5040551;28;19921;-65
2022/07/21 04:22:41;;;;;;;;;;;;;;;-140.72;100.00;52226.50;5053071;28;19917;-65
2022/07/21 04:25:07;;;;;;;;;;;;;;;-140.72;100.00;52208.25;5054874;28;19917;-65
2022/07/21 04:27:33;;;;;;;;;;;;;;;-140.72;100.00;52228.53;5052115;28;19960;-65
2022/07/21 04:29:58;;;;;;;;;;;;;;;-140.72;100.00;52224.47;5053915;28;19917;-65
2022/07/21 04:32:23;;;;;;;;;;;;;;;-140.72;100.00;52200.13;5052745;28;19971;-65
2022/07/21 04:34:49;;;;;;;;;;;;;;;-140.72;100.00;52204.19;5053879;28;20313;-65
2022/07/21 04:37:14;;;;;;;;;;;;;;;-140.72;100.00;52192.00;5041568;28;20070;-65
2022/07/21 04:39:39;;;;;;;;;;;;;;;-140.72;100.00;52224.47;5053225;28;19923;-65
2022/07/21 04:42:05;;;;;;;;;;;;;;;-140.72;100.00;52196.06;5052727;28;20365;-65
2022/07/21 04:44:30;;;;;;;;;;;;;;;-140.72;100.00;52196.06;5042072;28;20396;-66
2022/07/21 04:46:55;;;;;;;;;;;;;;;-140.72;100.00;52236.66;5048185;28;19960;-66
2022/07/21 04:49:20;;;;;;;;;;;;;;;-140.72;100.00;52222.44;5036025;28;19918;-65
2022/07/21 04:51:46;;;;;;;;;;;;;;;-140.72;100.00;52198.09;5038793;28;19917;-64
2022/07/21 04:54:13;;;;;;;;;;;;;;;-140.72;100.00;52212.31;5048075;28;19917;-65
2022/07/21 04:56:39;;;;;;;;;;;;;;;-140.72;100.00;52200.13;5051145;28;19917;-65
2022/07/21 04:59:04;;;;;;;;;;;;;;;-140.72;100.00;52196.06;5036468;28;19928;-64
2022/07/21 05:01:29;;;;;;;;;;;;;;;-140.72;100.00;52185.94;5048654;28;19917;-65
2022/07/21 05:03:54;;;;;;;;;;;;;;;-140.72;100.00;52222.44;5047000;28;19917;-65
2022/07/21 05:06:20;;;;;;;;;;;;;;;-140.72;100.00;52244.78;5041201;28;19921;-63
2022/07/21 05:08:45;;;;;;;;;;;;;;;-140.72;100.00;52228.53;5054411;28;19924;-64
2022/07/21 05:11:10;;;;;;;;;;;;;;;-140.72;100.00;52232.59;5054685;28;20016;-64
2022/07/21 05:13:35;;;;;;;;;;;;;;;-140.72;100.00;52198.09;5055299;28;20235;-64
2022/07/21 05:16:01;;;;;;;;;;;;;;;-140.72;100.00;52250.84;5052209;28;19917;-66
2022/07/21 05:18:26;;;;;;;;;;;;;;;-140.72;100.00;52224.47;5052775;28;19924;-65
2022/07/21 05:20:51;;;;;;;;;;;;;;;-140.72;100.00;52183.91;5051518;28;20338;-65
2022/07/21 05:23:16;;;;;;;;;;;;;;;-140.72;100.00;52206.22;5055242;28;19917;-64
2022/07/21 05:25:42;;;;;;;;;;;;;;;-140.72;100.00;52204.19;5050175;28;19917;-64
2022/07/21 05:28:07;;;;;;;;;;;;;;;-140.72;100.00;52236.66;5053735;28;19996;-64
2022/07/21 05:30:32;;;;;;;;;;;;;;;-140.72;100.00;52189.97;5052264;28;19932;-65
2022/07/21 05:32:57;;;;;;;;;;;;;;;-140.72;100.00;52200.13;5055190;28;19924;-64
2022/07/21 05:35:23;;;;;;;;;;;;;;;-140.72;100.00;52224.47;5057760;28;19929;-65
2022/07/21 05:37:48;;;;;;;;;;;;;;;-140.72;100.00;52202.16;5056869;28;20416;-65
2022/07/21 05:40:13;;;;;;;;;;;;;;;-140.72;100.00;52232.59;5057237;28;20301;-65
2022/07/21 05:42:39;;;;;;;;;;;;;;;-140.72;100.00;52226.50;5054563;28;20085;-65
2022/07/21 05:45:05;;;;;;;;;;;;;;;-140.72;100.00;52212.31;5053447;28;19925;-65
2022/07/21 05:47:31;;;;;;;;;;;;;;;-140.72;100.00;52196.06;5038685;28;19917;-65
2022/07/21 05:49:56;;;;;;;;;;;;;;;-140.72;100.00;52214.34;5040492;28;19917;-65
2022/07/21 05:52:21;;;;;;;;;;;;;;;-140.72;100.00;52256.94;5044259;28;19917;-65
2022/07/21 05:54:47;;;;;;;;;;;;;;;-140.72;100.00;52187.97;5056637;28;19921;-65
2022/07/21 05:57:12;;;;;;;;;;;;;;;-140.72;100.00;52196.06;5056169;28;20270;-65
2022/07/21 05:59:37;;;;;;;;;;;;;;;-140.72;100.00;52212.31;5043760;28;19917;-65
2022/07/21 06:02:02;;;;;;;;;;;;;;;-140.72;100.00;52167.66;5049838;28;20386;-65
2022/07/21 06:04:28;;;;;;;;;;;;;;;-140.72;100.00;52230.56;5038894;28;20391;-65
2022/07/21 06:06:53;;;;;;;;;;;;;;;-140.72;100.00;52224.47;5048832;28;20309;-65
2022/07/21 06:09:19;;;;;;;;;;;;;;;-140.72;100.00;52218.38;5051345;28;19979;-65
2022/07/21 06:11:44;;;;;;;;;;;;;;;-140.72;100.00;52232.59;5057637;28;20024;-64
2022/07/21 06:14:09;;;;;;;;;;;;;;;-140.72;100.00;52220.41;5055761;28;20054;-64
2022/07/21 06:16:35;;;;;;;;;;;;;;;-140.72;100.00;52224.47;5055227;28;20310;-66
2022/07/21 06:19:01;;;;;;;;;;;;;;;-140.72;100.00;52220.41;5056128;28;20329;-64
2022/07/21 06:21:26;;;;;;;;;;;;;;;-140.72;100.00;52256.94;5053853;28;20326;-65
2022/07/21 06:23:52;;;;;;;;;;;;;;;-140.72;100.00;52214.34;5055711;28;19917;-65
2022/07/21 06:26:18;;;;;;;;;;;;;;;-140.72;100.00;52232.59;5055639;28;20374;-64
2022/07/21 06:28:43;;;;;;;;;;;;;;;-140.72;100.00;52224.47;5056359;28;20032;-64
2022/07/21 06:31:08;;;;;;;;;;;;;;;-140.72;100.00;52252.88;5056767;28;19920;-64
2022/07/21 06:33:33;;;;;;;;;;;;;;;-140.72;100.00;52244.78;5054033;28;20058;-64
2022/07/21 06:35:58;;;;;;;;;;;;;;;-140.72;100.00;52232.59;5054343;28;19970;-65
2022/07/21 06:38:24;;;;;;;;;;;;;;;-140.72;100.00;52281.28;5054277;28;20266;-66
2022/07/21 06:40:49;;;;;;;;;;;;;;;-140.72;100.00;52216.34;5049820;28;19932;-66
2022/07/21 06:43:14;;;;;;;;;;;;;;;-140.72;100.00;52226.50;5036563;28;19924;-65
2022/07/21 06:45:39;;;;;;;;;;;;;;;-140.72;100.00;52254.91;5045508;28;19916;-64
2022/07/21 06:48:06;;;;;;;;;;;;;;;-140.72;100.00;52248.81;5055440;28;20347;-64
2022/07/21 06:50:31;;;;;;;;;;;;;;;-140.72;100.00;52305.63;5048196;28;19924;-65
2022/07/21 06:52:57;;;;;;;;;;;;;;;-140.72;100.00;52252.88;5037341;28;19917;-70
2022/07/21 06:55:22;;;;;;;;;;;;;;;-140.72;100.00;52248.81;5043909;28;19923;-67
2022/07/21 06:57:47;;;;;;;;;;;;;;;-140.72;100.00;52263.03;5055599;28;19917;-68
2022/07/21 07:00:13;;;;;;;;;;;;;;;-140.72;100.00;52240.72;5044933;28;19923;-69
2022/07/21 07:02:38;;;;;;;;;;;;;;;-140.72;100.00;52307.66;5035725;28;19924;-75
2022/07/21 07:05:03;;;;;;;;;;;;;;;-140.72;100.00;52271.16;5048382;28;20435;-69
2022/07/21 07:07:30;;;;;;;;;;;;;;;-140.72;100.00;52275.19;5054247;28;19917;-69
2022/07/21 07:09:55;;;;;;;;;;;;;;;-140.72;100.00;52289.41;5042033;28;19978;-70
2022/07/21 07:12:21;;;;;;;;;;;;;;;-140.72;100.00;52281.28;5046614;28;19921;-69
2022/07/21 07:14:46;;;;;;;;;;;;;;;-140.72;100.00;52263.03;5044564;28;19979;-70
2022/07/21 07:17:15;;;;;;;;;;;;;;;-140.72;100.00;52309.69;5040674;28;19924;-70
2022/07/21 07:19:40;;;;;;;;;;;;;;;-140.72;100.00;52309.69;5050106;28;19959;-70
2022/07/21 07:22:05;;;;;;;;;;;;;;;-140.72;100.00;52281.28;5053863;28;20404;-70
2022/07/21 07:24:30;;;;;;;;;;;;;;;-140.72;100.00;52275.19;5045488;28;19917;-70
2022/07/21 07:26:56;;;;;;;;;;;;;;;-140.72;100.00;52299.56;5041016;28;19923;-70
2022/07/21 07:29:22;;;;;;;;;;;;;;;-140.72;100.00;52271.16;5042331;28;20011;-71
2022/07/21 07:31:47;;;;;;;;;;;;;;;-140.72;100.00;52285.34;5034167;28;20373;-70
2022/07/21 07:34:12;;;;;;;;;;;;;;;-140.72;100.00;52283.31;5042258;28;19956;-71
2022/07/21 07:36:37;;;;;;;;;;;;;;;-140.72;100.00;52271.16;5042045;28;19924;-72
2022/07/21 07:39:03;;;;;;;;;;;;;;;-140.72;100.00;52254.91;5047635;28;19917;-71
2022/07/21 07:41:29;;;;;;;;;;;;;;;-140.72;100.00;52301.59;5051871;28;20274;-71
2022/07/21 07:43:54;;;;;;;;;;;;;;;-140.72;100.00;52297.53;5052098;28;19920;-71
2022/07/21 07:46:19;;;;;;;;;;;;;;;-140.72;100.00;52269.13;5047593;28;19921;-70
2022/07/21 07:48:45;;;;;;;;;;;;;;;-140.72;100.00;52281.28;5050342;28;19999;-70
2022/07/21 07:51:11;;;;;;;;;;;;;;;-140.72;100.00;52291.44;5049584;28;19940;-70
2022/07/21 07:53:36;;;;;;;;;;;;;;;-140.72;100.00;52275.19;5036820;28;19918;-70
2022/07/21 07:56:03;;;;;;;;;;;;;;;-140.72;100.00;52299.56;5046327;28;19971;-70
2022/07/21 07:58:28;;;;;;;;;;;;;;;-140.72;100.00;52330.00;5033933;28;19917;-66
2022/07/21 08:00:54;;;;;;;;;;;;;;;-140.72;100.00;52275.19;5035359;28;20293;-66
2022/07/21 08:03:19;;;;;;;;;;;;;;;-140.72;100.00;52285.34;5044407;28;19924;-64
2022/07/21 08:05:45;;;;;;;;;;;;;;;-140.72;100.00;52323.91;5035945;28;19917;-64
2022/07/21 08:08:10;;;;;;;;;;;;;;;-140.72;100.00;52301.59;5044886;28;19917;-65
2022/07/21 08:10:36;;;;;;;;;;;;;;;-140.72;100.00;52315.78;5031244;28;19917;-64
2022/07/21 08:13:01;;;;;;;;;;;;;;;-140.72;100.00;52265.06;5035010;28;20385;-64
2022/07/21 08:15:26;;;;;;;;;;;;;;;-140.72;100.00;52273.19;5044723;28;20435;-64
2022/07/21 08:17:51;;;;;;;;;;;;;;;-140.72;100.00;52299.56;5037846;28;19961;-65
2022/07/21 08:20:17;;;;;;;;;;;;;;;-140.72;100.00;52281.28;5040083;28;20016;-65
2022/07/21 08:22:42;;;;;;;;;;;;;;;-140.72;100.00;52258.97;5038012;28;19921;-64
2022/07/21 08:25:08;;;;;;;;;;;;;;;-140.72;100.00;52285.34;5038494;28;19921;-64
2022/07/21 08:27:33;;;;;;;;;;;;;;;-140.72;100.00;52265.06;5050873;28;20019;-64
2022/07/21 08:29:58;;;;;;;;;;;;;;;-140.72;100.00;52285.34;5038032;28;19924;-64
2022/07/21 08:32:24;;;;;;;;;;;;;;;-140.72;100.00;52301.59;5033978;28;19921;-64
2022/07/21 08:34:49;;;;;;;;;;;;;;;-140.72;100.00;52279.25;5030163;28;20380;-64
2022/07/21 08:37:14;;;;;;;;;;;;;;;-140.72;100.00;52299.56;5032401;28;20281;-64
2022/07/21 08:39:40;;;;;;;;;;;;;;;-140.72;100.00;52273.19;5033068;28;19956;-64
2022/07/21 08:42:08;;;;;;;;;;;;;;;-140.72;100.00;52291.44;5038038;28;19928;-64
2022/07/21 08:44:34;;;;;;;;;;;;;;;-140.72;100.00;52279.25;5051450;28;19979;-64
2022/07/21 08:46:59;;;;;;;;;;;;;;;-140.72;100.00;52265.06;5050918;28;19929;-65
2022/07/21 08:49:25;;;;;;;;;;;;;;;-140.72;100.00;52269.13;5049993;28;19917;-65
2022/07/21 08:51:51;;;;;;;;;;;;;;;-140.72;100.00;52289.41;5044500;28;19992;-64
2022/07/21 08:54:16;;;;;;;;;;;;;;;-140.72;100.00;52311.72;5043395;28;20404;-64
2022/07/21 08:56:41;;;;;;;;;;;;;;;-140.72;100.00;52315.78;5037576;28;19917;-64
2022/07/21 08:59:07;;;;;;;;;;;;;;;-140.72;100.00;52281.28;5036762;28;19917;-64
2022/07/21 09:01:33;;;;;;;;;;;;;;;-140.72;100.00;52305.63;5050634;28;19917;-64
2022/07/21 09:04:18;;;;;;;;;;;;;;;-140.72;100.00;52325.94;5051544;28;19971;-64
2022/07/21 09:06:50;;;;;;;;;;;;;;;-140.72;100.00;52289.41;5044353;28;19923;-63
2022/07/21 09:09:20;;;;;;;;;;;;;;;-140.72;100.00;52336.06;5042462;28;19917;-65
2022/07/21 09:11:45;;;;;;;;;;;;;;;-140.72;100.00;52309.69;5045796;28;19917;-64
2022/07/21 09:14:11;;;;;;;;;;;;;;;-140.72;100.00;52277.22;5054905;28;20024;-64
2022/07/21 09:16:39;;;;;;;;;;;;;;;-140.72;100.00;52277.22;5048229;28;19917;-65
2022/07/21 09:19:05;;;;;;;;;;;;;;;-140.72;100.00;52263.03;5049990;28;19955;-65
2022/07/21 09:21:32;;;;;;;;;;;;;;;-140.72;100.00;52250.84;5045335;28;19916;-65
2022/07/21 09:24:12;;;;;;;;;;;;;;;-140.72;100.00;52309.69;5042204;28;19917;-64
2022/07/21 09:26:56;;;;;;;;;;;;;;;-140.72;100.00;52248.81;5036935;28;19960;-65
2022/07/21 09:29:21;;;;;;;;;;;;;;;-140.72;100.00;52261.00;5047184;28;19917;-65
2022/07/21 09:31:46;;;;;;;;;;;;;;;-140.72;100.00;52279.25;5047265;28;20397;-65
2022/07/21 09:34:15;;;;;;;;;;;;;;;-140.72;100.00;52248.81;5049191;28;20028;-65
2022/07/21 09:36:54;;;;;;;;;;;;;;;-140.72;100.00;52265.06;5049476;28;20266;-64
2022/07/21 09:39:39;;;;;;;;;;;;;;;-140.72;100.00;52277.22;5039040;28;19963;-64
2022/07/21 09:42:14;;;;;;;;;;;;;;;-140.72;100.00;52281.28;5034633;28;19921;-64
2022/07/21 09:44:51;;;;;;;;;;;;;;;-140.72;100.00;52285.34;5048613;28;19929;-64
2022/07/21 09:47:17;;;;;;;;;;;;;;;-140.72;100.00;52293.47;5055159;28;19917;-65
2022/07/21 09:49:43;;;;;;;;;;;;;;;-140.72;100.00;52293.47;5054096;28;19928;-64
2022/07/21 09:52:19;;;;;;;;;;;;;;;-140.72;100.00;52327.97;5053551;28;20377;-65
2022/07/21 09:54:44;;;;;;;;;;;;;;;-140.72;100.00;52336.06;5039702;28;19932;-64
2022/07/21 09:57:10;;;;;;;;;;;;;;;-140.72;100.00;52315.78;5044418;28;19917;-65
2022/07/21 09:59:35;;;;;;;;;;;;;;;-140.72;100.00;52307.66;5041978;28;20007;-63
2022/07/21 10:02:01;;;;;;;;;;;;;;;-140.72;100.00;52325.94;5043853;28;19928;-64
2022/07/21 10:04:27;;;;;;;;;;;;;;;-140.72;100.00;52323.91;5035347;28;20330;-64
2022/07/21 10:06:52;;;;;;;;;;;;;;;-140.72;100.00;52291.44;5054723;28;20034;-64
2022/07/21 10:09:18;;;;;;;;;;;;;;;-140.72;100.00;52323.91;5053026;28;19970;-64
2022/07/21 10:11:43;;;;;;;;;;;;;;;-140.72;100.00;52321.88;5034649;28;20297;-63
2022/07/21 10:14:09;;;;;;;;;;;;;;;-140.72;100.00;52321.88;5034550;28;20318;-64
2022/07/21 10:16:35;;;;;;;;;;;;;;;-140.72;100.00;52303.59;5034128;28;20023;-64
2022/07/21 10:19:04;;;;;;;;;;;;;;;-140.72;100.00;52285.34;5034841;28;20103;-64
2022/07/21 10:21:45;;;;;;;;;;;;;;;-140.72;100.00;52321.88;5043983;28;19916;-64
2022/07/21 10:24:11;;;;;;;;;;;;;;;-140.72;100.00;52295.50;5051766;28;19988;-64
2022/07/21 10:26:36;;;;;;;;;;;;;;;-140.72;100.00;52313.75;5054063;28;19998;-64
2022/07/21 10:29:02;;;;;;;;;;;;;;;-140.72;100.00;52301.59;5053458;28;19948;-65
2022/07/21 10:31:27;;;;;;;;;;;;;;;-140.72;100.00;52323.91;5052372;28;19956;-64
2022/07/21 10:33:54;;;;;;;;;;;;;;;-140.72;100.00;52336.06;5051170;28;19921;-64
2022/07/21 10:36:26;;;;;;;;;;;;;;;-140.72;100.00;52299.56;5052896;28;19917;-64
2022/07/21 10:39:17;;;;;;;;;;;;;;;-140.72;100.00;52330.00;5051340;28;19913;-64
2022/07/21 10:41:42;;;;;;;;;;;;;;;-140.72;100.00;52313.75;5052198;28;19933;-64
2022/07/21 10:44:26;;;;;;;;;;;;;;;-140.72;100.00;52350.28;5053445;28;19912;-64
2022/07/21 10:46:59;;;;;;;;;;;;;;;-140.72;100.00;52277.22;5037178;28;20365;-64
2022/07/21 10:49:41;;;;;;;;;;;;;;;-140.72;100.00;52297.53;5035978;28;20453;-64
2022/07/21 10:52:26;;;;;;;;;;;;;;;-140.72;100.00;52285.34;5036177;28;20406;-64
2022/07/21 10:55:13;;;;;;;;;;;;;;;-140.72;100.00;52313.75;5035721;28;19998;-64
2022/07/21 10:57:43;;;;;;;;;;;;;;;-140.72;100.00;52297.53;5036340;28;20234;-64
2022/07/21 11:00:18;;;;;;;;;;;;;;;-140.72;100.00;52289.41;5042674;28;19932;-64
2022/07/21 11:02:45;;;;;;;;;;;;;;;-140.72;100.00;52303.59;5051029;28;20020;-64
2022/07/21 11:05:10;;;;;;;;;;;;;;;-140.72;100.00;52321.88;5034868;28;19987;-64
2022/07/21 11:07:54;;;;;;;;;;;;;;;-140.72;100.00;52295.50;5045840;28;20350;-64
2022/07/21 11:10:20;;;;;;;;;;;;;;;-140.72;100.00;52273.19;5042853;28;19927;-64
2022/07/21 11:12:55;;;;;;;;;;;;;;;-140.72;100.00;52317.81;5037171;28;20327;-64
2022/07/21 11:15:39;;;;;;;;;;;;;;;-140.72;100.00;52293.47;5035781;28;19924;-64
2022/07/21 11:18:04;;;;;;;;;;;;;;;-140.72;100.00;52362.44;5047979;28;20019;-65
2022/07/21 11:20:30;;;;;;;;;;;;;;;-140.72;100.00;52277.22;5053736;28;19948;-65
2022/07/21 11:23:02;;;;;;;;;;;;;;;-140.72;100.00;52299.56;5053553;28;20342;-70
2022/07/21 11:25:28;;;;;;;;;;;;;;;-140.72;100.00;52293.47;5045310;28;19917;-70
2022/07/21 11:27:54;;;;;;;;;;;;;;;-140.72;100.00;52332.03;5036804;28;19978;-70
2022/07/21 11:30:19;;;;;;;;;;;;;;;-140.72;100.00;52332.03;5046882;28;19935;-70
2022/07/21 11:32:48;;;;;;;;;;;;;;;-140.72;100.00;52293.47;5047826;28;19924;-71
2022/07/21 11:35:13;;;;;;;;;;;;;;;-140.72;100.00;52321.88;5041344;28;19967;-73
2022/07/21 11:37:42;;;;;;;;;;;;;;;-140.72;100.00;52293.47;5044618;28;19917;-70
2022/07/21 11:40:12;;;;;;;;;;;;;;;-140.72;100.00;52332.03;5037042;28;20020;-71
2022/07/21 11:42:38;;;;;;;;;;;;;;;-140.72;100.00;52313.75;5050881;28;20340;-71
2022/07/21 11:45:04;;;;;;;;;;;;;;;-140.72;100.00;52281.28;5050947;28;19952;-71
2022/07/21 11:47:29;;;;;;;;;;;;;;;-140.72;100.00;52360.44;5052143;28;19924;-71
2022/07/21 11:49:57;;;;;;;;;;;;;;;-140.72;100.00;52334.03;5048287;28;19917;-71
2022/07/21 11:52:27;;;;;;;;;;;;;;;-140.72;100.00;52319.84;5043581;28;19979;-70
2022/07/21 11:54:53;;;;;;;;;;;;;;;-140.72;100.00;52327.97;5047541;28;19917;-70
2022/07/21 11:57:19;;;;;;;;;;;;;;;-140.72;100.00;52360.44;5043650;28;20445;-70
2022/07/21 11:59:45;;;;;;;;;;;;;;;-140.72;100.00;52364.47;5051794;28;19971;-69
2022/07/21 12:02:12;;;;;;;;;;;;;;;-140.72;100.00;52313.75;5053721;28;19917;-69
2022/07/21 12:04:51;;;;;;;;;;;;;;;-140.72;100.00;52283.31;5063651;28;19916;-69
2022/07/21 12:07:19;;;;;;;;;;;;;;;-140.72;100.00;52305.63;5033607;28;20652;-68
2022/07/21 12:09:46;;;;;;;;;;;;;;;-140.72;100.00;52313.75;5046735;28;20344;-68
2022/07/21 12:12:12;;;;;;;;;;;;;;;-140.72;100.00;52382.75;5038038;28;19917;-68
2022/07/21 12:14:48;;;;;;;;;;;;;;;-140.72;100.00;52291.44;5048976;28;19966;-69
2022/07/21 12:17:14;;;;;;;;;;;;;;;-140.72;100.00;52323.91;5048993;28;20362;-69